Time;durP1;ratioP1;P1;durP2;ratioP2;P2;SDS_P1;SDS_P2;PMS_P1;PMS_P2;Temp;Humidity;BMP_temperature;BMP_pressure;BME280_temperature;BME280_humidity;BME280_pressure;Samples;Min_cycle;Max_cycle;Signal;HPM_P1;HPM_P2
2024/01/18 00:01:32;;;;;;;17.57;15.77;;;;;;;;;;4971242;28;20221;-86
2024/01/18 00:04:00;;;;;;;18.90;16.63;;;;;;;;;;4955423;28;20742;-84
2024/01/18 00:06:29;;;;;;;18.20;16.43;;;;;;;;;;4971126;28;20648;-85
2024/01/18 00:08:54;;;;;;;19.27;16.70;;;;;;;;;;4934167;28;20649;-85
2024/01/18 00:11:22;;;;;;;20.30;16.13;;;;;;;;;;4965046;28;20257;-84
2024/01/18 00:13:50;;;;;;;19.27;17.43;;;;;;;;;;4997292;28;20245;-84
2024/01/18 00:16:15;;;;;;;21.53;17.27;;;;;;;;;;4979736;28;20313;-83
2024/01/18 00:18:41;;;;;;;19.37;17.37;;;;;;;;;;4970815;28;20313;-85
2024/01/18 00:21:06;;;;;;;19.43;16.43;;;;;;;;;;4985988;28;20282;-85
2024/01/18 00:23:32;;;;;;;19.17;17.13;;;;;;;;;;4954038;28;20226;-83
2024/01/18 00:25:57;;;;;;;20.10;18.03;;;;;;;;;;4982030;28;20230;-85
2024/01/18 00:28:26;;;;;;;22.00;18.07;;;;;;;;;;4946832;28;20229;-85
2024/01/18 00:30:51;;;;;;;18.20;16.40;;;;;;;;;;4970566;28;20234;-84
2024/01/18 00:33:17;;;;;;;19.73;17.00;;;;;;;;;;4974933;28;20235;-85
2024/01/18 00:35:48;;;;;;;19.50;17.40;;;;;;;;;;4955903;28;20222;-85
2024/01/18 00:38:15;;;;;;;18.77;16.90;;;;;;;;;;4956796;28;20218;-85
2024/01/18 00:40:42;;;;;;;20.97;17.63;;;;;;;;;;4978870;28;20223;-84
2024/01/18 00:43:07;;;;;;;20.27;18.17;;;;;;;;;;4984171;28;20226;-82
2024/01/18 00:45:35;;;;;;;18.73;16.83;;;;;;;;;;4971298;28;20240;-84
2024/01/18 00:48:00;;;;;;;19.47;17.47;;;;;;;;;;4984635;28;20293;-84
2024/01/18 00:50:33;;;;;;;19.30;16.30;;;;;;;;;;4986862;28;20225;-85
2024/01/18 00:53:01;;;;;;;22.23;17.67;;;;;;;;;;4995819;28;20249;-84
2024/01/18 00:55:26;;;;;;;19.17;17.13;;;;;;;;;;4983631;28;20223;-85
2024/01/18 00:57:52;;;;;;;18.33;16.43;;;;;;;;;;4949523;28;20273;-83
2024/01/18 01:00:20;;;;;;;18.33;16.47;;;;;;;;;;4982841;28;20250;-85
2024/01/18 01:02:51;;;;;;;17.83;15.93;;;;;;;;;;4965293;28;20218;-86
2024/01/18 01:05:16;;;;;;;18.33;16.60;;;;;;;;;;4975764;28;20226;-85
2024/01/18 01:07:42;;;;;;;18.40;16.37;;;;;;;;;;4971194;28;20223;-85
2024/01/18 01:10:12;;;;;;;21.00;17.43;;;;;;;;;;4989410;28;20579;-83
2024/01/18 01:12:40;;;;;;;22.50;17.27;;;;;;;;;;4993182;28;20225;-84
2024/01/18 01:15:07;;;;;;;19.70;17.77;;;;;;;;;;4973708;28;20680;-85
2024/01/18 01:17:35;;;;;;;19.30;17.40;;;;;;;;;;4993112;28;20226;-84
2024/01/18 01:20:01;;;;;;;20.77;18.57;;;;;;;;;;4968962;28;20231;-85
2024/01/18 01:22:27;;;;;;;20.90;18.70;;;;;;;;;;4942249;28;20362;-84
2024/01/18 01:24:55;;;;;;;20.83;18.47;;;;;;;;;;4957178;28;20226;-84
2024/01/18 01:27:20;;;;;;;21.03;17.97;;;;;;;;;;4975976;28;20241;-85
2024/01/18 01:29:48;;;;;;;19.50;17.47;;;;;;;;;;4984819;28;20234;-86
2024/01/18 01:32:16;;;;;;;19.97;17.17;;;;;;;;;;4965524;28;20221;-86
2024/01/18 01:34:43;;;;;;;21.40;18.30;;;;;;;;;;4985158;28;20222;-84
2024/01/18 01:37:09;;;;;;;21.43;19.17;;;;;;;;;;4972654;28;20234;-83
2024/01/18 01:39:37;;;;;;;20.93;17.70;;;;;;;;;;4990882;28;20245;-85
2024/01/18 01:42:04;;;;;;;26.10;22.70;;;;;;;;;;4972920;28;20221;-85
2024/01/18 01:44:32;;;;;;;22.00;19.77;;;;;;;;;;4955000;28;20226;-85
2024/01/18 01:46:58;;;;;;;22.43;19.57;;;;;;;;;;4981563;28;20281;-84
2024/01/18 01:49:26;;;;;;;20.63;18.63;;;;;;;;;;4986454;28;20241;-83
2024/01/18 01:51:52;;;;;;;21.37;19.17;;;;;;;;;;4999442;28;20232;-86
2024/01/18 01:54:20;;;;;;;21.27;18.73;;;;;;;;;;4966986;28;20222;-86
2024/01/18 01:56:47;;;;;;;20.53;18.47;;;;;;;;;;4956517;28;20712;-85
2024/01/18 01:59:15;;;;;;;21.50;19.20;;;;;;;;;;4997218;28;20252;-84
2024/01/18 02:01:41;;;;;;;21.57;19.27;;;;;;;;;;4973794;28;20367;-85
2024/01/18 02:04:11;;;;;;;20.30;18.47;;;;;;;;;;4980872;28;20613;-85
2024/01/18 02:06:39;;;;;;;19.77;17.77;;;;;;;;;;4992558;28;20237;-84
2024/01/18 02:09:07;;;;;;;21.83;19.53;;;;;;;;;;4957252;28;20592;-84
2024/01/18 02:11:34;;;;;;;21.47;18.33;;;;;;;;;;5000013;28;20224;-85
2024/01/18 02:14:05;;;;;;;20.33;18.40;;;;;;;;;;4953490;28;20237;-84
2024/01/18 02:16:32;;;;;;;22.10;19.70;;;;;;;;;;4960143;28;20250;-85
2024/01/18 02:19:02;;;;;;;21.03;18.97;;;;;;;;;;4970939;28;20253;-85
2024/01/18 02:21:28;;;;;;;21.13;19.13;;;;;;;;;;4979656;28;20226;-86
2024/01/18 02:24:33;;;;;;;23.83;20.43;;;;;;;;;;4928221;29;20234;-85
2024/01/18 02:26:59;;;;;;;20.80;18.60;;;;;;;;;;4970987;28;20255;-85
2024/01/18 02:29:26;;;;;;;22.77;20.27;;;;;;;;;;4961231;28;20296;-84
2024/01/18 02:31:52;;;;;;;20.83;18.70;;;;;;;;;;4961638;28;20227;-86
2024/01/18 02:34:18;;;;;;;22.83;20.43;;;;;;;;;;4976216;28;20246;-86
2024/01/18 02:36:44;;;;;;;24.17;21.70;;;;;;;;;;4960270;28;20234;-86
2024/01/18 02:39:12;;;;;;;21.87;19.57;;;;;;;;;;4957702;28;20217;-85
2024/01/18 02:41:41;;;;;;;22.87;20.47;;;;;;;;;;5001324;28;20279;-84
2024/01/18 02:44:08;;;;;;;21.40;19.30;;;;;;;;;;4999555;28;20225;-85
2024/01/18 02:46:36;;;;;;;22.87;20.57;;;;;;;;;;5000185;28;20226;-84
2024/01/18 02:49:01;;;;;;;22.27;19.90;;;;;;;;;;4965280;28;20256;-85
2024/01/18 02:51:27;;;;;;;22.87;20.63;;;;;;;;;;4983626;28;20210;-86
2024/01/18 02:53:55;;;;;;;20.90;18.77;;;;;;;;;;4988191;28;20230;-85
2024/01/18 02:56:21;;;;;;;21.20;18.83;;;;;;;;;;4976734;28;20233;-87
2024/01/18 02:58:46;;;;;;;22.43;20.03;;;;;;;;;;4957086;29;20665;-84
2024/01/18 03:01:14;;;;;;;22.93;20.40;;;;;;;;;;4988161;28;20232;-87
2024/01/18 03:03:39;;;;;;;23.17;20.70;;;;;;;;;;4960094;28;20218;-86
2024/01/18 03:06:12;;;;;;;22.90;20.57;;;;;;;;;;4958464;28;20221;-86
2024/01/18 03:08:39;;;;;;;25.07;20.17;;;;;;;;;;4952932;28;20275;-86
2024/01/18 03:11:05;;;;;;;22.57;20.13;;;;;;;;;;4947837;28;20229;-84
2024/01/18 03:13:31;;;;;;;24.53;20.30;;;;;;;;;;4968970;28;20974;-86
2024/01/18 03:15:57;;;;;;;24.03;21.67;;;;;;;;;;4959236;28;20234;-86
2024/01/18 03:18:22;;;;;;;24.40;22.00;;;;;;;;;;4962413;28;20225;-86
2024/01/18 03:20:50;;;;;;;23.73;21.17;;;;;;;;;;4967743;28;20365;-86
2024/01/18 03:23:20;;;;;;;24.97;22.17;;;;;;;;;;4965183;28;20218;-86
2024/01/18 03:25:48;;;;;;;25.00;22.37;;;;;;;;;;4949871;28;20225;-86
2024/01/18 03:28:16;;;;;;;25.07;22.60;;;;;;;;;;4973255;28;20222;-85
2024/01/18 03:30:43;;;;;;;24.13;21.57;;;;;;;;;;4967947;28;20224;-86
2024/01/18 03:33:11;;;;;;;24.60;22.07;;;;;;;;;;4955316;28;20222;-85
2024/01/18 03:35:39;;;;;;;24.07;21.57;;;;;;;;;;4956645;28;20224;-86
2024/01/18 03:38:09;;;;;;;22.20;19.97;;;;;;;;;;4961760;28;20223;-84
2024/01/18 03:40:37;;;;;;;22.43;20.23;;;;;;;;;;4986863;28;20223;-84
2024/01/18 03:43:05;;;;;;;21.80;19.70;;;;;;;;;;4962368;28;20231;-86
2024/01/18 03:45:31;;;;;;;22.00;19.87;;;;;;;;;;4963663;28;20241;-85
2024/01/18 03:47:56;;;;;;;22.47;20.07;;;;;;;;;;4950648;28;20238;-85
2024/01/18 03:50:26;;;;;;;24.70;21.20;;;;;;;;;;4947691;28;20225;-85
2024/01/18 03:52:52;;;;;;;23.57;21.13;;;;;;;;;;4945509;28;20250;-85
2024/01/18 03:55:21;;;;;;;23.13;20.70;;;;;;;;;;4974757;28;20233;-85
2024/01/18 03:57:47;;;;;;;23.17;20.87;;;;;;;;;;4962192;28;21015;-85
2024/01/18 04:03:59;;;;;;;21.37;19.10;;;;;;;;;;4972349;28;20610;-87
2024/01/18 04:06:25;;;;;;;23.03;19.60;;;;;;;;;;4980768;28;20222;-85
2024/01/18 04:08:53;;;;;;;25.20;21.57;;;;;;;;;;4963558;28;20230;-87
2024/01/18 04:11:19;;;;;;;23.37;20.93;;;;;;;;;;4961595;28;20226;-88
2024/01/18 04:13:44;;;;;;;23.77;21.20;;;;;;;;;;4966240;28;21017;-86
2024/01/18 04:16:12;;;;;;;24.70;21.73;;;;;;;;;;4964465;28;20233;-88
2024/01/18 04:18:39;;;;;;;23.40;21.00;;;;;;;;;;4980323;28;20282;-88
2024/01/18 04:21:07;;;;;;;24.37;20.90;;;;;;;;;;4967147;28;20230;-86
2024/01/18 04:23:33;;;;;;;23.13;20.07;;;;;;;;;;4948717;28;20218;-87
2024/01/18 04:25:59;;;;;;;24.37;20.93;;;;;;;;;;4955922;28;20237;-87
2024/01/18 04:28:26;;;;;;;21.23;19.03;;;;;;;;;;4969928;28;20218;-87
2024/01/18 04:30:54;;;;;;;24.57;21.67;;;;;;;;;;4943509;28;20233;-87
2024/01/18 04:33:21;;;;;;;23.33;20.87;;;;;;;;;;4942920;28;20911;-87
2024/01/18 04:35:47;;;;;;;23.70;21.17;;;;;;;;;;4941938;29;20243;-87
2024/01/18 04:38:18;;;;;;;22.13;19.73;;;;;;;;;;4952023;28;20246;-87
2024/01/18 04:40:46;;;;;;;23.53;21.03;;;;;;;;;;4952161;28;20219;-88
2024/01/18 04:43:11;;;;;;;21.30;19.07;;;;;;;;;;4979548;28;21027;-88
2024/01/18 04:45:37;;;;;;;24.87;21.43;;;;;;;;;;4956730;28;20252;-87
2024/01/18 04:48:03;;;;;;;23.83;21.40;;;;;;;;;;4948642;28;20226;-79
2024/01/18 04:50:28;;;;;;;24.97;20.00;;;;;;;;;;4963451;28;20233;-77
2024/01/18 04:52:54;;;;;;;24.20;21.60;;;;;;;;;;4963965;28;20242;-78
2024/01/18 04:55:23;;;;;;;24.23;20.20;;;;;;;;;;4965065;28;20244;-78
2024/01/18 04:57:51;;;;;;;22.83;20.43;;;;;;;;;;4967981;28;20249;-79
2024/01/18 05:00:19;;;;;;;23.10;20.80;;;;;;;;;;4943103;28;20595;-77
2024/01/18 05:02:45;;;;;;;22.97;20.73;;;;;;;;;;4952721;28;20229;-78
2024/01/18 05:05:11;;;;;;;24.10;21.73;;;;;;;;;;4968704;28;20218;-79
2024/01/18 05:07:43;;;;;;;25.27;21.43;;;;;;;;;;4976879;28;20226;-79
2024/01/18 05:10:11;;;;;;;23.67;21.33;;;;;;;;;;4968812;28;20266;-78
2024/01/18 05:12:40;;;;;;;29.13;22.43;;;;;;;;;;4964899;28;20608;-78
2024/01/18 05:15:07;;;;;;;29.97;25.83;;;;;;;;;;4965767;28;20234;-80
2024/01/18 05:17:37;;;;;;;29.43;26.13;;;;;;;;;;4988018;28;20232;-77
2024/01/18 05:20:06;;;;;;;28.60;25.50;;;;;;;;;;4967033;28;20250;-78
2024/01/18 05:22:36;;;;;;;33.27;26.93;;;;;;;;;;4981189;28;20226;-79
2024/01/18 05:25:02;;;;;;;31.27;27.87;;;;;;;;;;4978156;28;20992;-78
2024/01/18 05:27:30;;;;;;;30.80;27.50;;;;;;;;;;4963674;28;20218;-77
2024/01/18 05:30:03;;;;;;;30.23;25.37;;;;;;;;;;4965782;28;20236;-77
2024/01/18 05:32:32;;;;;;;27.70;24.53;;;;;;;;;;4956414;28;20218;-78
2024/01/18 05:34:58;;;;;;;29.70;23.20;;;;;;;;;;4963669;28;20249;-78
2024/01/18 05:37:23;;;;;;;28.43;23.93;;;;;;;;;;4967733;28;20274;-78
2024/01/18 05:39:51;;;;;;;28.77;24.33;;;;;;;;;;4966975;28;20246;-78
2024/01/18 05:42:21;;;;;;;28.27;23.13;;;;;;;;;;4965249;28;20253;-78
2024/01/18 05:44:50;;;;;;;25.33;22.37;;;;;;;;;;4980348;28;20222;-78
2024/01/18 05:47:16;;;;;;;29.60;23.97;;;;;;;;;;4966284;28;20306;-78
2024/01/18 05:49:46;;;;;;;24.60;21.90;;;;;;;;;;4947457;28;20521;-78
2024/01/18 05:52:11;;;;;;;24.93;20.87;;;;;;;;;;4972983;28;20229;-78
2024/01/18 05:54:42;;;;;;;23.77;20.40;;;;;;;;;;4963701;28;20221;-78
2024/01/18 05:57:10;;;;;;;22.97;20.53;;;;;;;;;;4929959;28;20919;-79
2024/01/18 05:59:35;;;;;;;23.27;20.83;;;;;;;;;;4960400;28;20711;-78
2024/01/18 06:02:01;;;;;;;23.90;20.57;;;;;;;;;;4980208;28;20224;-78
2024/01/18 06:04:27;;;;;;;26.10;22.50;;;;;;;;;;4972989;28;20218;-79
2024/01/18 06:06:52;;;;;;;23.90;21.30;;;;;;;;;;4965224;28;20888;-77
2024/01/18 06:09:18;;;;;;;25.03;22.33;;;;;;;;;;4961950;28;20240;-77
2024/01/18 06:11:50;;;;;;;24.57;21.93;;;;;;;;;;4979548;28;20225;-78
2024/01/18 06:14:18;;;;;;;24.10;21.60;;;;;;;;;;4959203;28;20222;-77
2024/01/18 06:16:44;;;;;;;26.90;24.10;;;;;;;;;;4961584;28;20214;-77
2024/01/18 06:19:10;;;;;;;25.53;22.73;;;;;;;;;;4960446;28;20225;-77
2024/01/18 06:21:35;;;;;;;25.33;22.47;;;;;;;;;;4961954;28;20321;-77
2024/01/18 06:24:01;;;;;;;26.80;24.03;;;;;;;;;;4956866;28;20230;-78
2024/01/18 06:26:26;;;;;;;24.70;21.87;;;;;;;;;;4958024;28;20714;-78
2024/01/18 06:28:54;;;;;;;26.80;21.93;;;;;;;;;;4956402;28;20222;-78
2024/01/18 06:31:26;;;;;;;23.17;20.83;;;;;;;;;;4983003;28;20268;-77
2024/01/18 06:33:52;;;;;;;25.07;21.97;;;;;;;;;;4971773;28;20737;-78
2024/01/18 06:36:18;;;;;;;24.37;20.80;;;;;;;;;;4964227;28;20393;-78
2024/01/18 06:38:44;;;;;;;28.57;21.93;;;;;;;;;;4953373;28;20222;-77
2024/01/18 06:41:11;;;;;;;23.90;21.47;;;;;;;;;;4955570;28;20668;-78
2024/01/18 06:43:37;;;;;;;25.53;22.83;;;;;;;;;;4985831;28;20214;-77
2024/01/18 06:46:03;;;;;;;26.83;22.60;;;;;;;;;;4971277;28;20229;-76
2024/01/18 06:48:30;;;;;;;25.33;22.73;;;;;;;;;;4970178;28;20238;-78
2024/01/18 06:50:58;;;;;;;24.80;22.27;;;;;;;;;;4967095;28;20242;-78
2024/01/18 06:53:26;;;;;;;24.30;21.80;;;;;;;;;;4943071;28;20565;-77
2024/01/18 06:55:52;;;;;;;23.67;21.23;;;;;;;;;;4969897;28;20222;-77
2024/01/18 06:58:17;;;;;;;24.07;21.47;;;;;;;;;;4968287;28;20233;-77
2024/01/18 07:00:43;;;;;;;25.33;21.27;;;;;;;;;;4979742;28;20226;-77
2024/01/18 07:03:09;;;;;;;23.67;21.27;;;;;;;;;;4980596;28;20406;-77
2024/01/18 07:05:34;;;;;;;24.53;21.53;;;;;;;;;;4966392;28;20293;-78
2024/01/18 07:08:03;;;;;;;24.63;21.17;;;;;;;;;;4977397;28;20210;-77
2024/01/18 07:10:28;;;;;;;24.07;21.50;;;;;;;;;;4979384;28;20237;-77
2024/01/18 07:12:54;;;;;;;29.90;22.87;;;;;;;;;;4960232;28;20222;-77
2024/01/18 07:15:28;;;;;;;26.57;22.47;;;;;;;;;;4971729;28;20289;-77
2024/01/18 07:17:56;;;;;;;25.03;22.43;;;;;;;;;;4970958;28;20283;-78
2024/01/18 07:20:21;;;;;;;24.43;21.90;;;;;;;;;;4968646;28;20234;-76
2024/01/18 07:22:47;;;;;;;25.90;21.87;;;;;;;;;;4986078;28;20230;-77
2024/01/18 07:25:12;;;;;;;26.10;20.83;;;;;;;;;;4958150;28;20233;-77
2024/01/18 07:27:45;;;;;;;24.73;21.87;;;;;;;;;;4977487;28;20234;-77
2024/01/18 07:30:16;;;;;;;24.20;20.93;;;;;;;;;;4961179;28;20230;-77
2024/01/18 07:32:49;;;;;;;24.20;21.17;;;;;;;;;;4965638;28;20222;-79
2024/01/18 07:35:17;;;;;;;23.90;21.47;;;;;;;;;;4944081;28;20231;-78
2024/01/18 07:37:45;;;;;;;26.60;22.70;;;;;;;;;;4963523;28;20217;-78
2024/01/18 07:40:13;;;;;;;26.40;23.60;;;;;;;;;;4963927;28;20226;-77
2024/01/18 07:42:38;;;;;;;27.33;23.17;;;;;;;;;;4975551;28;20237;-77
2024/01/18 07:45:04;;;;;;;25.80;23.07;;;;;;;;;;4960495;28;20229;-77
2024/01/18 07:47:29;;;;;;;24.77;21.57;;;;;;;;;;4967968;28;20250;-77
2024/01/18 07:49:57;;;;;;;26.23;23.63;;;;;;;;;;4964456;28;20241;-77
2024/01/18 07:52:24;;;;;;;28.10;25.00;;;;;;;;;;4975534;28;20228;-77
2024/01/18 07:54:50;;;;;;;27.53;24.07;;;;;;;;;;4969435;28;20284;-77
2024/01/18 07:57:19;;;;;;;27.80;24.87;;;;;;;;;;4967947;28;20310;-78
2024/01/18 07:59:44;;;;;;;28.87;24.63;;;;;;;;;;4959684;28;20225;-78
2024/01/18 08:02:10;;;;;;;25.67;22.97;;;;;;;;;;4977319;28;20225;-78
2024/01/18 08:04:35;;;;;;;25.77;23.17;;;;;;;;;;4970146;28;20226;-77
2024/01/18 08:07:06;;;;;;;26.30;23.50;;;;;;;;;;4969621;28;20218;-78
2024/01/18 08:09:31;;;;;;;25.97;23.10;;;;;;;;;;4965613;28;20229;-77
2024/01/18 08:11:57;;;;;;;25.07;22.27;;;;;;;;;;4970333;28;20226;-78
2024/01/18 08:14:26;;;;;;;28.10;24.73;;;;;;;;;;4965537;28;20260;-77
2024/01/18 08:16:51;;;;;;;35.67;27.57;;;;;;;;;;4965401;28;20226;-77
2024/01/18 08:19:19;;;;;;;28.30;25.17;;;;;;;;;;4971725;28;20232;-77
2024/01/18 08:21:44;;;;;;;24.73;22.23;;;;;;;;;;4981034;28;20256;-78
2024/01/18 08:24:10;;;;;;;25.37;22.57;;;;;;;;;;4943029;28;20234;-77
2024/01/18 08:26:39;;;;;;;26.73;24.10;;;;;;;;;;4957506;28;20357;-78
2024/01/18 08:29:07;;;;;;;23.93;21.43;;;;;;;;;;4955489;28;20222;-77
2024/01/18 08:31:32;;;;;;;24.10;21.67;;;;;;;;;;4963476;28;20312;-77
2024/01/18 08:34:00;;;;;;;23.57;21.07;;;;;;;;;;4957290;28;20236;-78
2024/01/18 08:36:26;;;;;;;23.53;21.10;;;;;;;;;;4967980;28;20222;-77
2024/01/18 08:38:56;;;;;;;25.33;22.00;;;;;;;;;;4966313;28;20245;-77
2024/01/18 08:41:24;;;;;;;28.17;25.03;;;;;;;;;;4966937;28;20214;-78
2024/01/18 08:43:50;;;;;;;26.50;23.57;;;;;;;;;;4970650;28;20750;-77
2024/01/18 08:46:15;;;;;;;36.23;24.73;;;;;;;;;;4943665;28;20281;-78
2024/01/18 08:48:41;;;;;;;27.87;24.80;;;;;;;;;;4966960;28;20257;-77
2024/01/18 08:51:12;;;;;;;30.80;26.87;;;;;;;;;;4962807;28;20226;-78
2024/01/18 08:53:41;;;;;;;33.90;30.30;;;;;;;;;;4954524;28;20707;-77
2024/01/18 08:56:07;;;;;;;83.27;59.13;;;;;;;;;;4962188;28;20284;-78
2024/01/18 08:58:33;;;;;;;47.67;39.50;;;;;;;;;;4946035;28;20747;-77
2024/01/18 09:00:58;;;;;;;36.73;32.80;;;;;;;;;;4986875;28;20366;-78
2024/01/18 09:03:24;;;;;;;29.53;25.53;;;;;;;;;;4953501;28;20225;-76
2024/01/18 09:05:51;;;;;;;25.50;22.83;;;;;;;;;;4962851;28;20222;-78
2024/01/18 09:08:19;;;;;;;25.20;22.73;;;;;;;;;;4977485;28;20248;-78
2024/01/18 09:10:45;;;;;;;25.17;22.57;;;;;;;;;;4978780;28;20230;-78
2024/01/18 09:13:11;;;;;;;31.50;28.40;;;;;;;;;;4963542;28;20218;-77
2024/01/18 09:15:36;;;;;;;32.57;29.43;;;;;;;;;;4962046;28;20237;-77
2024/01/18 09:18:04;;;;;;;29.80;26.87;;;;;;;;;;4945718;28;20229;-77
2024/01/18 09:20:30;;;;;;;25.13;22.63;;;;;;;;;;4959177;28;20226;-77
2024/01/18 09:22:57;;;;;;;27.00;23.27;;;;;;;;;;4960994;28;20228;-77
2024/01/18 09:25:23;;;;;;;25.80;22.90;;;;;;;;;;4960718;28;20230;-77
2024/01/18 09:27:48;;;;;;;24.37;21.97;;;;;;;;;;4960101;28;20684;-77
2024/01/18 09:30:14;;;;;;;24.00;21.67;;;;;;;;;;4957327;28;20222;-77
2024/01/18 09:32:39;;;;;;;26.13;23.47;;;;;;;;;;4961627;28;20972;-78
2024/01/18 09:35:08;;;;;;;23.87;21.50;;;;;;;;;;4969073;28;20824;-78
2024/01/18 09:37:42;;;;;;;26.20;23.20;;;;;;;;;;4964544;28;20233;-78
2024/01/18 09:40:11;;;;;;;26.20;23.13;;;;;;;;;;4967295;28;20258;-78
2024/01/18 09:42:37;;;;;;;52.53;38.80;;;;;;;;;;4975413;28;20226;-76
2024/01/18 09:45:08;;;;;;;36.50;31.97;;;;;;;;;;4958052;28;20754;-77
2024/01/18 09:47:34;;;;;;;31.67;28.30;;;;;;;;;;4945654;28;20268;-77
2024/01/18 09:49:59;;;;;;;28.40;25.50;;;;;;;;;;4941274;28;20242;-76
2024/01/18 09:52:25;;;;;;;30.30;26.27;;;;;;;;;;4956851;28;20720;-78
2024/01/18 09:54:51;;;;;;;29.67;25.70;;;;;;;;;;4939999;28;20289;-77
2024/01/18 09:57:21;;;;;;;28.50;24.43;;;;;;;;;;4961014;28;20230;-78
2024/01/18 09:59:47;;;;;;;28.43;21.73;;;;;;;;;;4964683;28;20304;-77
2024/01/18 10:02:12;;;;;;;23.97;21.43;;;;;;;;;;4947997;28;20214;-77
2024/01/18 10:04:38;;;;;;;23.77;21.37;;;;;;;;;;4974190;28;20226;-78
2024/01/18 10:07:04;;;;;;;27.63;24.77;;;;;;;;;;4963389;28;20218;-78
2024/01/18 10:09:29;;;;;;;30.40;26.87;;;;;;;;;;4962018;28;20375;-78
2024/01/18 10:11:57;;;;;;;29.70;25.20;;;;;;;;;;4956919;28;20325;-77
2024/01/18 10:14:42;;;;;;;26.27;23.47;;;;;;;;;;4963238;28;20233;-79
2024/01/18 10:17:07;;;;;;;25.20;22.67;;;;;;;;;;4964953;28;20221;-78
2024/01/18 10:19:34;;;;;;;31.17;27.17;;;;;;;;;;4964943;28;20226;-78
2024/01/18 10:22:00;;;;;;;28.63;22.60;;;;;;;;;;4960562;28;20237;-79
2024/01/18 10:24:25;;;;;;;22.87;20.60;;;;;;;;;;4952628;28;20312;-79
2024/01/18 10:27:04;;;;;;;22.73;20.33;;;;;;;;;;4964361;28;20685;-79
2024/01/18 10:29:35;;;;;;;22.63;20.20;;;;;;;;;;4948227;28;20637;-78
2024/01/18 10:32:02;;;;;;;24.57;20.40;;;;;;;;;;4975348;28;20222;-80
2024/01/18 10:34:28;;;;;;;48.70;33.67;;;;;;;;;;4967988;28;20237;-79
2024/01/18 10:36:54;;;;;;;45.43;33.33;;;;;;;;;;4971336;28;20221;-78
2024/01/18 10:39:22;;;;;;;36.60;29.53;;;;;;;;;;4961142;28;20218;-78
2024/01/18 10:41:50;;;;;;;35.23;28.63;;;;;;;;;;4952668;28;20226;-77
2024/01/18 10:44:16;;;;;;;55.97;40.17;;;;;;;;;;4966882;28;20222;-76
2024/01/18 10:46:42;;;;;;;46.07;33.40;;;;;;;;;;4959809;28;20226;-78
2024/01/18 10:49:12;;;;;;;43.97;34.13;;;;;;;;;;4956703;28;20218;-78
2024/01/18 10:51:39;;;;;;;16.17;14.43;;;;;;;;;;4958656;28;20245;-78
2024/01/18 10:54:09;;;;;;;13.17;11.07;;;;;;;;;;4955497;28;20241;-77
2024/01/18 10:56:38;;;;;;;13.17;10.17;;;;;;;;;;4958258;28;20305;-78
2024/01/18 10:59:06;;;;;;;11.10;8.83;;;;;;;;;;4931257;28;20285;-78
2024/01/18 11:01:32;;;;;;;11.07;10.07;;;;;;;;;;4966342;28;20228;-77
2024/01/18 11:04:00;;;;;;;9.27;8.57;;;;;;;;;;4943210;28;20723;-78
2024/01/18 11:06:30;;;;;;;10.70;8.73;;;;;;;;;;4942616;28;20226;-78
2024/01/18 11:08:56;;;;;;;8.83;7.97;;;;;;;;;;4950674;28;20237;-77
2024/01/18 11:11:21;;;;;;;8.10;7.40;;;;;;;;;;4949050;28;20218;-78
2024/01/18 11:13:49;;;;;;;9.60;7.63;;;;;;;;;;4928930;28;20285;-78
2024/01/18 11:16:17;;;;;;;9.77;8.37;;;;;;;;;;4964759;28;20226;-77
2024/01/18 11:18:49;;;;;;;8.80;7.90;;;;;;;;;;4948379;28;20238;-77
2024/01/18 11:21:14;;;;;;;8.10;7.40;;;;;;;;;;4965371;28;20356;-77
2024/01/18 11:23:40;;;;;;;11.23;7.70;;;;;;;;;;4949845;28;20229;-78
2024/01/18 11:26:07;;;;;;;7.63;6.83;;;;;;;;;;4948712;28;20218;-78
2024/01/18 11:28:35;;;;;;;6.97;6.37;;;;;;;;;;4950823;28;20222;-77
2024/01/18 11:31:01;;;;;;;8.23;6.93;;;;;;;;;;4958804;28;20253;-77
2024/01/18 11:33:29;;;;;;;6.73;6.03;;;;;;;;;;4943336;28;20250;-78
2024/01/18 11:35:56;;;;;;;7.60;6.23;;;;;;;;;;4951341;28;20713;-78
2024/01/18 11:38:28;;;;;;;6.60;5.73;;;;;;;;;;4950385;28;20742;-78
2024/01/18 11:41:22;;;;;;;6.13;5.53;;;;;;;;;;4956610;28;20219;-77
2024/01/18 11:43:55;;;;;;;6.60;5.77;;;;;;;;;;4957099;28;20241;-78
2024/01/18 11:46:39;;;;;;;10.07;7.07;;;;;;;;;;4970499;28;20218;-78
2024/01/18 11:49:05;;;;;;;8.43;7.00;;;;;;;;;;4975252;28;20233;-78
2024/01/18 11:51:36;;;;;;;8.03;6.00;;;;;;;;;;4956261;28;20226;-78
2024/01/18 11:54:02;;;;;;;8.47;6.63;;;;;;;;;;4950388;28;20272;-78
2024/01/18 11:56:28;;;;;;;6.60;6.00;;;;;;;;;;4947702;28;20218;-77
2024/01/18 11:58:55;;;;;;;7.30;5.87;;;;;;;;;;4966188;28;20328;-77
2024/01/18 12:01:20;;;;;;;9.33;6.77;;;;;;;;;;4949371;28;20222;-77
2024/01/18 12:03:52;;;;;;;8.20;6.97;;;;;;;;;;4950018;28;20222;-77
2024/01/18 12:06:20;;;;;;;10.83;6.73;;;;;;;;;;4976572;28;21027;-78
2024/01/18 12:08:46;;;;;;;7.67;6.33;;;;;;;;;;4949720;28;20237;-77
2024/01/18 12:11:12;;;;;;;7.83;5.77;;;;;;;;;;4970553;28;20226;-77
2024/01/18 12:13:38;;;;;;;7.70;5.97;;;;;;;;;;4953055;28;20221;-77
2024/01/18 12:16:06;;;;;;;6.70;6.10;;;;;;;;;;4953698;28;20229;-77
2024/01/18 12:18:41;;;;;;;8.57;6.17;;;;;;;;;;4969048;28;21189;-77
2024/01/18 12:21:06;;;;;;;6.73;6.10;;;;;;;;;;4986363;28;20281;-77
2024/01/18 12:23:32;;;;;;;7.47;6.50;;;;;;;;;;4968646;28;20237;-77
2024/01/18 12:26:00;;;;;;;7.00;5.60;;;;;;;;;;4956664;28;20268;-78
2024/01/18 12:28:27;;;;;;;9.30;6.00;;;;;;;;;;4959941;28;20237;-77
2024/01/18 12:31:01;;;;;;;6.53;5.80;;;;;;;;;;4974378;28;20249;-78
2024/01/18 12:33:40;;;;;;;5.57;4.97;;;;;;;;;;4954549;28;20725;-78
2024/01/18 12:36:05;;;;;;;6.43;5.00;;;;;;;;;;4974746;28;20233;-78
2024/01/18 12:38:33;;;;;;;6.00;5.50;;;;;;;;;;4948476;28;20230;-78
2024/01/18 12:41:01;;;;;;;8.97;5.90;;;;;;;;;;4948702;28;20225;-77
2024/01/18 12:43:29;;;;;;;9.87;4.93;;;;;;;;;;4988627;28;20222;-78
2024/01/18 12:45:54;;;;;;;5.93;5.33;;;;;;;;;;4969229;28;20257;-77
2024/01/18 12:48:20;;;;;;;6.93;5.90;;;;;;;;;;4952520;28;20226;-78
2024/01/18 12:50:48;;;;;;;9.30;5.63;;;;;;;;;;4953584;28;20236;-77
2024/01/18 12:53:16;;;;;;;7.63;5.63;;;;;;;;;;4969561;28;20337;-78
2024/01/18 12:55:42;;;;;;;6.10;5.50;;;;;;;;;;4984423;28;20230;-77
2024/01/18 12:58:12;;;;;;;6.50;5.67;;;;;;;;;;4950191;28;20225;-78
2024/01/18 13:00:40;;;;;;;6.17;5.57;;;;;;;;;;4944741;28;20925;-77
2024/01/18 13:03:15;;;;;;;7.00;5.93;;;;;;;;;;4960087;28;20229;-77
2024/01/18 13:05:47;;;;;;;6.50;5.60;;;;;;;;;;4952302;28;20321;-77
2024/01/18 13:08:18;;;;;;;6.33;5.73;;;;;;;;;;4955969;28;20230;-77
2024/01/18 13:10:46;;;;;;;9.13;5.33;;;;;;;;;;4954243;28;20631;-78
2024/01/18 13:13:12;;;;;;;7.07;5.10;;;;;;;;;;4948249;28;20281;-78
2024/01/18 13:15:42;;;;;;;5.73;4.63;;;;;;;;;;4952221;28;20242;-79
2024/01/18 13:18:10;;;;;;;7.83;6.27;;;;;;;;;;4963628;28;20210;-78
2024/01/18 13:20:38;;;;;;;8.00;5.67;;;;;;;;;;4931684;28;20813;-77
2024/01/18 13:23:04;;;;;;;5.67;5.17;;;;;;;;;;4934143;28;20222;-79
2024/01/18 13:25:33;;;;;;;6.57;5.97;;;;;;;;;;4971769;28;20234;-78
2024/01/18 13:28:01;;;;;;;5.73;5.00;;;;;;;;;;4974354;28;20233;-78
2024/01/18 13:30:26;;;;;;;4.93;4.53;;;;;;;;;;4954258;28;20223;-78
2024/01/18 13:32:53;;;;;;;7.80;4.97;;;;;;;;;;4967467;28;20226;-78
2024/01/18 13:35:21;;;;;;;10.27;5.77;;;;;;;;;;4959070;28;20230;-78
2024/01/18 13:37:49;;;;;;;5.10;4.27;;;;;;;;;;4972984;28;20242;-77
2024/01/18 13:40:15;;;;;;;5.20;4.70;;;;;;;;;;4963387;28;20219;-78
2024/01/18 13:42:41;;;;;;;4.77;4.37;;;;;;;;;;4969419;28;20249;-78
2024/01/18 13:45:09;;;;;;;4.50;4.00;;;;;;;;;;4967781;28;20213;-77
2024/01/18 13:47:41;;;;;;;5.57;4.23;;;;;;;;;;4972970;28;20253;-77
2024/01/18 13:50:09;;;;;;;4.93;4.10;;;;;;;;;;4952656;28;20222;-77
2024/01/18 13:52:35;;;;;;;7.43;4.83;;;;;;;;;;4968514;28;20815;-77
2024/01/18 13:55:03;;;;;;;4.53;3.80;;;;;;;;;;4954265;28;20559;-78
2024/01/18 13:57:28;;;;;;;7.00;5.03;;;;;;;;;;4968175;28;20407;-77
2024/01/18 13:59:54;;;;;;;5.23;3.77;;;;;;;;;;4970762;28;20242;-77
2024/01/18 14:02:20;;;;;;;5.03;4.30;;;;;;;;;;4964979;28;20225;-77
2024/01/18 14:04:45;;;;;;;4.53;4.17;;;;;;;;;;4947963;28;20244;-78
2024/01/18 14:07:11;;;;;;;4.23;3.83;;;;;;;;;;4955689;28;20277;-77
2024/01/18 14:09:36;;;;;;;6.43;4.07;;;;;;;;;;4975039;28;20261;-79
2024/01/18 14:12:02;;;;;;;5.07;4.57;;;;;;;;;;4956568;28;20232;-78
2024/01/18 14:14:27;;;;;;;5.10;4.07;;;;;;;;;;4988588;28;20240;-78
2024/01/18 14:16:53;;;;;;;6.07;4.43;;;;;;;;;;4989549;28;20230;-77
2024/01/18 14:19:18;;;;;;;3.90;3.50;;;;;;;;;;4939980;28;20782;-78
2024/01/18 14:21:44;;;;;;;4.73;3.93;;;;;;;;;;4956394;28;20237;-78
2024/01/18 14:24:10;;;;;;;7.53;3.60;;;;;;;;;;4987981;28;20241;-78
2024/01/18 14:26:35;;;;;;;5.27;3.97;;;;;;;;;;4966511;28;20225;-78
2024/01/18 14:29:10;;;;;;;4.97;4.00;;;;;;;;;;4947370;28;20222;-78